Time;durP1;ratioP1;P1;durP2;ratioP2;P2;SDS_P1;SDS_P2;PMS_P1;PMS_P2;Temp;Humidity;BMP_temperature;BMP_pressure;BME280_temperature;BME280_humidity;BME280_pressure;Samples;Min_cycle;Max_cycle;Signal;HPM_P1;HPM_P2
2021/04/12 00:01:17;;;;;;;5.28;3.38;;;7.00;99.90;;;;;;5008490;28;20073;-68
2021/04/12 00:03:59;;;;;;;4.70;3.58;;;6.90;99.90;;;;;;5007561;28;20077;-68
2021/04/12 00:06:37;;;;;;;6.40;3.17;;;6.90;99.90;;;;;;5011695;28;20382;-68
2021/04/12 00:09:11;;;;;;;4.90;3.33;;;6.90;99.90;;;;;;5009451;28;20508;-70
2021/04/12 00:11:48;;;;;;;5.20;3.42;;;6.80;99.90;;;;;;5004605;28;20394;-67
2021/04/12 00:14:26;;;;;;;3.75;3.10;;;6.80;99.90;;;;;;5010823;28;20134;-67
2021/04/12 00:17:03;;;;;;;4.72;3.42;;;7.00;99.90;;;;;;5009932;28;20046;-69
2021/04/12 00:19:41;;;;;;;5.57;3.30;;;6.90;99.90;;;;;;5010609;28;20045;-67
2021/04/12 00:22:30;;;;;;;6.22;3.40;;;6.90;99.90;;;;;;5010843;28;20057;-67
2021/04/12 00:24:59;;;;;;;7.88;3.25;;;7.00;99.90;;;;;;5009688;28;20081;-68
2021/04/12 00:27:41;;;;;;;3.78;2.88;;;7.00;99.90;;;;;;5021672;28;21049;-68
2021/04/12 00:30:29;;;;;;;4.93;3.05;;;7.00;99.90;;;;;;5023014;28;20054;-68
2021/04/12 00:33:02;;;;;;;4.63;3.10;;;7.00;99.90;;;;;;5010684;28;20041;-68
2021/04/12 00:35:37;;;;;;;4.13;3.00;;;6.80;99.90;;;;;;5024354;28;20054;-67
2021/04/12 00:38:28;;;;;;;6.07;3.45;;;6.80;99.90;;;;;;5009783;28;20054;-68
2021/04/12 00:41:07;;;;;;;4.70;3.17;;;6.90;99.90;;;;;;5011432;28;20132;-70
2021/04/12 00:43:58;;;;;;;6.13;3.45;;;6.90;99.90;;;;;;5007262;28;20432;-68
2021/04/12 00:46:43;;;;;;;5.07;3.17;;;6.90;99.50;;;;;;5004935;28;20046;-69
2021/04/12 00:49:28;;;;;;;3.80;2.65;;;6.80;98.90;;;;;;5012934;28;20050;-68
2021/04/12 00:52:13;;;;;;;6.13;3.30;;;6.90;98.40;;;;;;5012279;28;20448;-69
2021/04/12 00:55:03;;;;;;;3.92;3.10;;;6.90;98.20;;;;;;5013370;28;20073;-68
2021/04/12 00:57:44;;;;;;;5.30;3.70;;;6.80;98.20;;;;;;5011305;28;20049;-69
2021/04/12 01:00:16;;;;;;;6.47;3.85;;;6.80;99.50;;;;;;5011451;28;20386;-69
2021/04/12 01:03:04;;;;;;;6.32;4.00;;;6.80;99.90;;;;;;5012634;28;20046;-68
2021/04/12 01:05:35;;;;;;;6.65;3.50;;;7.00;99.90;;;;;;5011306;28;20086;-69
2021/04/12 01:08:39;;;;;;;5.88;3.75;;;6.80;99.90;;;;;;5013578;28;20046;-68
2021/04/12 01:11:41;;;;;;;6.15;3.67;;;6.70;99.90;;;;;;5009158;28;20046;-69
2021/04/12 01:14:20;;;;;;;7.43;4.53;;;6.70;99.90;;;;;;4971818;28;20090;-69
2021/04/12 01:17:17;;;;;;;8.48;5.47;;;6.50;99.90;;;;;;5005445;28;20390;-69
2021/04/12 01:20:04;;;;;;;9.57;5.43;;;6.50;99.90;;;;;;5010559;28;20100;-68
2021/04/12 01:23:08;;;;;;;9.63;5.72;;;6.60;99.90;;;;;;5011586;28;20104;-69
2021/04/12 01:25:53;;;;;;;9.35;5.45;;;6.40;99.90;;;;;;5023091;28;20042;-68
2021/04/12 01:28:56;;;;;;;9.70;6.25;;;6.50;99.90;;;;;;5012387;28;20457;-68
2021/04/12 01:31:51;;;;;;;12.20;6.50;;;6.70;99.90;;;;;;5012216;28;20133;-69
2021/04/12 01:34:52;;;;;;;11.52;6.32;;;6.40;99.90;;;;;;4995304;28;20084;-68
2021/04/12 01:37:49;;;;;;;9.23;6.57;;;6.40;99.90;;;;;;5027866;28;20161;-68
2021/04/12 01:40:28;;;;;;;9.93;6.28;;;6.20;99.90;;;;;;5012264;28;20054;-68
2021/04/12 01:43:18;;;;;;;10.35;7.18;;;6.40;99.90;;;;;;5012236;28;20060;-68
2021/04/12 01:46:12;;;;;;;11.73;6.80;;;6.40;99.90;;;;;;5012305;28;20123;-68
2021/04/12 01:48:58;;;;;;;13.85;7.35;;;6.40;99.90;;;;;;5011542;28;20100;-68
2021/04/12 01:52:01;;;;;;;12.23;6.93;;;6.50;99.90;;;;;;5012330;28;20499;-68
2021/04/12 01:55:08;;;;;;;11.60;6.93;;;6.50;99.90;;;;;;5012812;28;20046;-68
2021/04/12 01:57:34;;;;;;;11.43;7.22;;;6.40;99.90;;;;;;5007281;28;20064;-69
2021/04/12 02:00:13;;;;;;;13.75;7.63;;;6.30;99.90;;;;;;5013067;28;20054;-68
2021/04/12 02:03:00;;;;;;;10.25;7.43;;;6.30;99.90;;;;;;5003909;28;20097;-68
2021/04/12 02:06:09;;;;;;;9.23;6.22;;;6.50;99.90;;;;;;5011360;28;20555;-69
2021/04/12 02:08:44;;;;;;;12.68;5.60;;;6.50;99.90;;;;;;5012417;28;20108;-68
2021/04/12 02:11:19;;;;;;;9.60;4.80;;;6.40;99.90;;;;;;5012808;28;20104;-69
2021/04/12 02:14:10;;;;;;;7.88;4.55;;;6.50;99.90;;;;;;5010605;28;20073;-69
2021/04/12 02:17:04;;;;;;;6.53;3.92;;;6.40;99.90;;;;;;5011975;28;20045;-69
2021/04/12 02:20:07;;;;;;;6.13;3.40;;;6.40;99.90;;;;;;5025800;28;20045;-69
2021/04/12 02:22:45;;;;;;;6.65;3.03;;;6.30;96.50;;;;;;5024946;28;20538;-68
2021/04/12 02:25:58;;;;;;;7.95;3.08;;;6.40;96.10;;;;;;5011343;28;20046;-70
2021/04/12 02:28:39;;;;;;;5.40;2.92;;;6.30;94.60;;;;;;5011262;28;20054;-68
2021/04/12 02:31:24;;;;;;;5.20;3.30;;;6.50;94.60;;;;;;5010509;28;20042;-70
2021/04/12 02:34:18;;;;;;;6.63;2.97;;;6.60;94.50;;;;;;5003402;28;20473;-69
2021/04/12 02:37:03;;;;;;;5.72;3.33;;;6.50;95.30;;;;;;5013411;28;20493;-68
2021/04/12 02:39:41;;;;;;;6.15;3.08;;;6.30;95.40;;;;;;5010225;28;20069;-69
2021/04/12 02:42:22;;;;;;;6.13;3.25;;;6.10;96.10;;;;;;5011178;28;20053;-69
2021/04/12 02:45:04;;;;;;;6.38;3.53;;;6.00;97.80;;;;;;5009599;28;20073;-69
2021/04/12 02:47:57;;;;;;;5.72;3.30;;;6.10;99.30;;;;;;5010663;28;20155;-68
2021/04/12 02:51:03;;;;;;;7.03;3.53;;;6.00;97.60;;;;;;5010991;28;20514;-69
2021/04/12 02:53:51;;;;;;;8.10;4.20;;;6.10;99.10;;;;;;5002613;28;20050;-70
2021/04/12 02:56:51;;;;;;;6.80;4.35;;;6.20;99.90;;;;;;5011552;28;20069;-69
2021/04/12 02:59:42;;;;;;;7.07;4.40;;;6.20;99.90;;;;;;5003323;28;20525;-69
2021/04/12 03:02:27;;;;;;;8.75;4.65;;;6.10;99.90;;;;;;5001558;28;20037;-69
2021/04/12 03:04:54;;;;;;;12.23;5.13;;;6.10;99.90;;;;;;5009972;28;20532;-68
2021/04/12 03:07:44;;;;;;;9.38;4.93;;;6.20;99.90;;;;;;5009829;28;20045;-69
2021/04/12 03:10:16;;;;;;;7.72;4.50;;;6.10;99.90;;;;;;5011934;28;20081;-69
2021/04/12 03:12:51;;;;;;;5.50;4.07;;;6.20;98.70;;;;;;5004277;28;20042;-70
2021/04/12 03:15:58;;;;;;;5.38;3.90;;;6.40;96.80;;;;;;5023787;28;20045;-69
2021/04/12 03:18:37;;;;;;;7.70;3.97;;;6.40;97.00;;;;;;5006709;28;20095;-69
2021/04/12 03:21:15;;;;;;;7.10;3.72;;;6.40;96.70;;;;;;5007678;28;20092;-69
2021/04/12 03:24:24;;;;;;;6.05;3.88;;;6.60;96.90;;;;;;5024669;28;20125;-69
2021/04/12 03:27:19;;;;;;;6.55;3.97;;;6.50;96.60;;;;;;5007549;28;20409;-69
2021/04/12 03:30:22;;;;;;;10.60;4.40;;;6.60;94.60;;;;;;5009969;28;20374;-68
2021/04/12 03:32:55;;;;;;;9.88;4.95;;;6.70;94.80;;;;;;5002470;28;20772;-68
2021/04/12 03:35:55;;;;;;;9.55;4.90;;;6.50;96.20;;;;;;5011231;28;20508;-69
2021/04/12 03:38:46;;;;;;;9.07;5.32;;;6.60;96.50;;;;;;5009435;28;20053;-69
2021/04/12 03:41:27;;;;;;;13.15;7.47;;;6.50;96.60;;;;;;5000528;28;20080;-69
2021/04/12 03:44:12;;;;;;;13.85;7.10;;;6.70;97.10;;;;;;5010444;28;20494;-68
2021/04/12 03:47:16;;;;;;;18.05;9.95;;;6.60;97.60;;;;;;5009974;28;20069;-69
2021/04/12 03:50:01;;;;;;;19.60;10.68;;;6.50;98.30;;;;;;5009528;28;20084;-69
2021/04/12 03:52:56;;;;;;;21.58;12.07;;;6.40;99.90;;;;;;5010702;28;20042;-69
2021/04/12 03:56:04;;;;;;;19.38;11.43;;;6.40;99.70;;;;;;5004997;28;20042;-69
2021/04/12 03:58:30;;;;;;;19.80;11.85;;;6.70;99.90;;;;;;5010927;28;20042;-68
2021/04/12 04:00:59;;;;;;;24.55;11.45;;;6.50;99.70;;;;;;5009214;28;20054;-68
2021/04/12 04:03:45;;;;;;;21.27;12.43;;;6.50;98.80;;;;;;5022706;28;20088;-68
2021/04/12 04:06:17;;;;;;;22.33;12.48;;;6.50;98.20;;;;;;5010801;28;20132;-68
2021/04/12 04:09:13;;;;;;;20.30;12.02;;;6.40;97.80;;;;;;5010074;28;20119;-68
2021/04/12 04:11:56;;;;;;;23.45;11.65;;;6.40;98.60;;;;;;5004220;28;20046;-68
2021/04/12 04:15:02;;;;;;;21.02;11.60;;;6.50;97.80;;;;;;5011159;28;20050;-68
2021/04/12 04:17:34;;;;;;;17.17;11.20;;;6.50;97.90;;;;;;5009511;28;20449;-68
2021/04/12 04:20:29;;;;;;;20.17;11.23;;;6.70;97.10;;;;;;5011483;28;20068;-70
2021/04/12 04:23:30;;;;;;;23.38;11.35;;;6.60;96.80;;;;;;5025448;28;20062;-68
2021/04/12 04:26:03;;;;;;;16.05;9.85;;;6.50;96.10;;;;;;5013821;28;20137;-68
2021/04/12 04:28:59;;;;;;;16.33;9.30;;;6.50;95.40;;;;;;5013711;28;20485;-68
2021/04/12 04:32:10;;;;;;;17.65;10.63;;;6.50;95.10;;;;;;5012262;28;20057;-68
2021/04/12 04:34:55;;;;;;;;;;;6.40;95.80;;;;;;5004291;28;20056;-68
2021/04/12 04:37:51;;;;;;;15.20;8.57;;;6.30;96.00;;;;;;5013416;28;19921;-68
2021/04/12 04:40:29;;;;;;;17.50;8.82;;;6.40;95.60;;;;;;5012272;28;20050;-68
2021/04/12 04:43:37;;;;;;;20.65;8.77;;;6.20;94.60;;;;;;5029128;28;20128;-68
2021/04/12 04:46:15;;;;;;;21.35;7.63;;;6.40;95.40;;;;;;5016657;28;20544;-68
2021/04/12 04:49:08;;;;;;;15.85;8.48;;;6.20;94.80;;;;;;5011213;28;20073;-68
2021/04/12 04:51:51;;;;;;;14.93;7.82;;;6.20;95.00;;;;;;5005515;28;20046;-68
2021/04/12 04:54:55;;;;;;;14.48;7.18;;;6.30;94.60;;;;;;5010354;28;20045;-68
2021/04/12 04:57:44;;;;;;;16.40;7.35;;;6.40;94.20;;;;;;5029372;28;20100;-68
2021/04/12 05:00:34;;;;;;;15.90;6.43;;;6.30;94.70;;;;;;5008256;28;20500;-68
2021/04/12 05:03:10;;;;;;;13.70;6.40;;;6.10;93.70;;;;;;5012136;28;20433;-68
2021/04/12 05:05:56;;;;;;;15.95;7.32;;;6.10;94.00;;;;;;5013341;28;20112;-68
2021/04/12 05:09:00;;;;;;;16.52;6.80;;;6.40;95.10;;;;;;5012256;28;20469;-69
2021/04/12 05:11:32;;;;;;;10.52;6.28;;;6.10;94.20;;;;;;5011668;28;20077;-68
2021/04/12 05:14:32;;;;;;;9.98;6.13;;;6.10;93.90;;;;;;5010539;28;20041;-69
2021/04/12 05:17:39;;;;;;;11.43;5.90;;;6.00;94.00;;;;;;5013514;28;20473;-68
2021/04/12 05:20:42;;;;;;;11.02;5.78;;;6.30;93.80;;;;;;5011750;28;20077;-68
2021/04/12 05:23:19;;;;;;;11.52;5.90;;;6.10;93.50;;;;;;5010217;28;20489;-69
2021/04/12 05:25:54;;;;;;;10.50;5.43;;;6.00;92.60;;;;;;5009320;28;20477;-69
2021/04/12 05:28:54;;;;;;;14.23;5.90;;;6.10;92.90;;;;;;5011703;28;20042;-69
2021/04/12 05:31:42;;;;;;;11.85;6.05;;;6.20;92.60;;;;;;5007956;28;20054;-69
2021/04/12 05:34:44;;;;;;;10.45;5.72;;;6.20;92.20;;;;;;5013727;28;20057;-69
2021/04/12 05:37:35;;;;;;;9.73;5.85;;;6.20;92.00;;;;;;5009935;28;20050;-69
2021/04/12 05:40:01;;;;;;;;;;;6.20;92.20;;;;;;5011632;28;20093;-70
2021/04/12 05:42:42;;;;;;;12.88;5.65;;;6.20;91.70;;;;;;5011082;28;20376;-69
2021/04/12 05:45:14;;;;;;;12.30;5.57;;;6.20;91.60;;;;;;5008033;28;20096;-69
2021/04/12 05:48:16;;;;;;;13.38;5.85;;;6.40;91.60;;;;;;5012914;28;20092;-69
2021/04/12 05:50:57;;;;;;;12.23;6.20;;;6.30;90.70;;;;;;5009937;28;20485;-70
2021/04/12 05:53:55;;;;;;;11.45;6.75;;;6.40;90.90;;;;;;5012294;28;20073;-70
2021/04/12 05:56:27;;;;;;;17.13;6.65;;;6.40;90.90;;;;;;5011689;28;20073;-71
2021/04/12 05:59:12;;;;;;;13.02;6.43;;;6.50;90.80;;;;;;5011714;28;20088;-69
2021/04/12 06:01:50;;;;;;;13.82;6.15;;;6.60;89.40;;;;;;4995047;28;20160;-69
2021/04/12 06:04:23;;;;;;;16.13;6.80;;;6.70;88.60;;;;;;4993631;28;20054;-71
2021/04/12 06:07:10;;;;;;;20.67;7.38;;;6.50;87.60;;;;;;4993572;28;20515;-69
2021/04/12 06:09:57;;;;;;;17.65;7.40;;;6.60;88.20;;;;;;4993287;28;20050;-69
2021/04/12 06:12:51;;;;;;;12.20;6.25;;;6.60;86.20;;;;;;4994416;28;20145;-79
2021/04/12 06:15:37;;;;;;;11.70;6.97;;;6.50;86.20;;;;;;4997541;28;20444;-78
2021/04/12 06:18:18;;;;;;;14.07;6.40;;;6.70;86.60;;;;;;4993035;28;20516;-76
2021/04/12 06:21:17;;;;;;;14.43;6.70;;;6.60;85.80;;;;;;4992183;28;21447;-78
2021/04/12 06:24:07;;;;;;;13.18;7.38;;;6.50;85.60;;;;;;4992881;28;20093;-79
2021/04/12 06:26:45;;;;;;;12.18;6.90;;;6.50;86.70;;;;;;5008232;28;20089;-76
2021/04/12 06:29:51;;;;;;;13.30;6.00;;;6.60;86.80;;;;;;5004977;28;20053;-80
2021/04/12 06:32:26;;;;;;;13.60;6.53;;;6.60;85.60;;;;;;4991268;28;20464;-81
2021/04/12 06:34:54;;;;;;;10.48;6.40;;;6.80;85.50;;;;;;4994491;28;20056;-79
2021/04/12 06:38:14;;;;;;;13.07;6.43;;;6.70;85.10;;;;;;5010450;28;21323;-76
2021/04/12 06:41:05;;;;;;;10.20;6.32;;;6.90;85.30;;;;;;4974909;28;20046;-78
2021/04/12 06:44:02;;;;;;;13.10;6.60;;;6.90;84.10;;;;;;4976064;28;20058;-77
2021/04/12 06:46:56;;;;;;;12.38;7.38;;;6.80;83.80;;;;;;4989377;28;20061;-77
2021/04/12 06:50:13;;;;;;;12.65;6.78;;;6.70;84.80;;;;;;4991104;28;20578;-76
2021/04/12 06:52:58;;;;;;;13.10;5.97;;;6.90;83.90;;;;;;4984434;28;20493;-79
2021/04/12 06:56:01;;;;;;;15.52;6.95;;;7.00;80.90;;;;;;4989513;28;20242;-78
2021/04/12 06:58:36;;;;;;;13.02;6.78;;;7.40;80.80;;;;;;5004904;28;20097;-78
2021/04/12 07:01:28;;;;;;;13.32;6.78;;;7.20;78.60;;;;;;5004875;28;20077;-78
2021/04/12 07:04:22;;;;;;;13.40;5.57;;;7.30;80.50;;;;;;4992989;28;20058;-78
2021/04/12 07:07:24;;;;;;;14.43;6.15;;;7.20;77.80;;;;;;5007503;28;20054;-75
2021/04/12 07:10:09;;;;;;;10.20;5.50;;;7.20;77.30;;;;;;4989774;28;20082;-76
2021/04/12 07:13:02;;;;;;;12.00;5.43;;;7.30;77.20;;;;;;4990416;28;20188;-79
2021/04/12 07:15:56;;;;;;;11.20;5.40;;;7.80;75.00;;;;;;4997460;28;20058;-78
2021/04/12 07:18:41;;;;;;;15.18;6.43;;;7.70;74.30;;;;;;4992444;28;20046;-77
2021/04/12 07:21:28;;;;;;;14.73;6.93;;;7.60;75.80;;;;;;4991626;28;20128;-75
2021/04/12 07:24:22;;;;;;;12.40;5.55;;;7.80;76.90;;;;;;5004498;28;20396;-75
2021/04/12 07:27:39;;;;;;;17.27;7.85;;;8.10;73.60;;;;;;5006018;28;20141;-75
2021/04/12 07:30:08;;;;;;;11.23;5.70;;;7.80;73.40;;;;;;5005578;28;20058;-76
2021/04/12 07:33:11;;;;;;;9.77;6.05;;;7.80;72.60;;;;;;4990416;28;20072;-76
2021/04/12 07:36:11;;;;;;;10.80;5.45;;;7.70;72.90;;;;;;4991879;28;20065;-73
2021/04/12 07:39:08;;;;;;;11.15;6.68;;;7.70;74.20;;;;;;5006332;28;20096;-75
2021/04/12 07:41:56;;;;;;;15.25;8.40;;;7.80;72.30;;;;;;4990457;28;20053;-76
2021/04/12 07:44:42;;;;;;;9.82;4.88;;;8.10;72.90;;;;;;5007500;28;20057;-75
2021/04/12 07:47:29;;;;;;;9.43;5.18;;;7.80;71.70;;;;;;5006012;28;20643;-74
2021/04/12 07:50:01;;;;;;;13.15;5.90;;;8.00;71.20;;;;;;5005909;28;20054;-75
2021/04/12 07:52:37;;;;;;;8.95;4.22;;;8.20;69.70;;;;;;4991102;28;20046;-75
2021/04/12 07:55:36;;;;;;;7.10;4.55;;;8.30;66.60;;;;;;5006987;28;20046;-75
2021/04/12 07:58:33;;;;;;;8.85;4.38;;;9.00;67.20;;;;;;5010267;28;20081;-76
2021/04/12 08:01:11;;;;;;;7.90;4.13;;;9.20;64.50;;;;;;5008095;28;20053;-75
2021/04/12 08:04:04;;;;;;;7.72;4.78;;;9.60;63.60;;;;;;4995752;28;20437;-76
2021/04/12 08:07:09;;;;;;;9.27;4.47;;;9.50;62.80;;;;;;4993550;28;20049;-75
2021/04/12 08:09:50;;;;;;;8.35;3.42;;;9.60;61.30;;;;;;5008213;28;20505;-74
2021/04/12 08:13:00;;;;;;;9.10;4.20;;;9.50;61.20;;;;;;4993706;28;20480;-75
2021/04/12 08:15:51;;;;;;;7.95;3.63;;;9.30;59.80;;;;;;4993137;28;20155;-75
2021/04/12 08:18:32;;;;;;;8.70;3.70;;;10.00;57.50;;;;;;4995654;28;20060;-75
2021/04/12 08:21:04;;;;;;;6.40;3.28;;;10.40;55.40;;;;;;5009290;28;20504;-75
2021/04/12 08:24:03;;;;;;;6.68;3.28;;;9.90;56.50;;;;;;5010794;28;20657;-75
2021/04/12 08:27:09;;;;;;;7.30;3.65;;;9.50;57.20;;;;;;5009848;28;20800;-75
2021/04/12 08:29:51;;;;;;;8.52;3.45;;;9.30;58.10;;;;;;4994782;28;20050;-75
2021/04/12 08:32:36;;;;;;;8.30;3.70;;;9.90;58.00;;;;;;5008399;28;20078;-75
2021/04/12 08:35:23;;;;;;;7.20;3.15;;;10.50;55.20;;;;;;4994928;28;20057;-76
2021/04/12 08:38:04;;;;;;;8.98;2.78;;;10.20;54.90;;;;;;4994365;28;20856;-75
2021/04/12 08:40:46;;;;;;;8.07;3.22;;;9.50;55.30;;;;;;4991292;28;20046;-75
2021/04/12 08:43:34;;;;;;;8.13;3.17;;;9.00;56.40;;;;;;4994653;28;20065;-75
2021/04/12 08:46:45;;;;;;;12.13;3.65;;;9.00;57.00;;;;;;4992369;28;20164;-75
2021/04/12 08:49:14;;;;;;;7.70;3.30;;;9.80;57.00;;;;;;4993449;28;20050;-74
2021/04/12 08:52:23;;;;;;;10.13;3.10;;;9.60;56.40;;;;;;5007045;28;20058;-76
2021/04/12 08:54:55;;;;;;;9.02;3.30;;;9.40;55.60;;;;;;4979740;28;20061;-75
2021/04/12 08:57:44;;;;;;;6.40;2.97;;;9.90;56.20;;;;;;5010776;28;20058;-74
2021/04/12 09:00:14;;;;;;;7.30;3.13;;;10.10;54.50;;;;;;5007800;28;20827;-74
2021/04/12 09:03:05;;;;;;;12.13;3.90;;;11.10;54.70;;;;;;5011652;28;20104;-75
2021/04/12 09:06:05;;;;;;;7.68;3.28;;;11.30;51.90;;;;;;5006127;28;20065;-76
2021/04/12 09:08:56;;;;;;;9.70;5.45;;;10.50;52.50;;;;;;5019276;28;20429;-76
2021/04/12 09:11:28;;;;;;;8.05;4.18;;;10.00;53.70;;;;;;5020174;28;20057;-76
2021/04/12 09:14:23;;;;;;;9.82;4.13;;;10.70;52.70;;;;;;5018066;28;20512;-75
2021/04/12 09:16:58;;;;;;;8.65;3.33;;;10.30;52.80;;;;;;5007687;28;20057;-76
2021/04/12 09:19:40;;;;;;;8.35;3.13;;;9.70;53.00;;;;;;5005839;28;20505;-76
2021/04/12 09:22:28;;;;;;;7.90;3.50;;;9.50;54.20;;;;;;5020596;28;20058;-76
2021/04/12 09:25:13;;;;;;;10.70;3.75;;;9.70;53.80;;;;;;5005364;28;20132;-74
2021/04/12 09:27:55;;;;;;;6.50;3.15;;;10.10;51.70;;;;;;5005618;28;20179;-75
2021/04/12 09:30:54;;;;;;;8.98;4.38;;;10.10;51.80;;;;;;5021105;28;20061;-75
2021/04/12 09:33:52;;;;;;;8.40;4.78;;;9.30;54.00;;;;;;5018390;28;20074;-77
2021/04/12 09:36:43;;;;;;;11.85;4.90;;;9.30;56.00;;;;;;5016913;28;20058;-76
2021/04/12 09:39:34;;;;;;;9.75;4.97;;;9.10;56.40;;;;;;5016256;28;20049;-75
2021/04/12 09:42:19;;;;;;;9.23;4.72;;;9.10;56.30;;;;;;5005721;28;20056;-76
2021/04/12 09:45:20;;;;;;;9.07;4.65;;;11.20;53.10;;;;;;5004887;28;20140;-77
2021/04/12 09:48:14;;;;;;;13.20;4.28;;;10.30;51.40;;;;;;5005737;28;20448;-75
2021/04/12 09:51:18;;;;;;;8.15;3.65;;;9.10;54.20;;;;;;5006397;28;20417;-75
2021/04/12 09:54:09;;;;;;;7.50;3.83;;;9.20;54.60;;;;;;5018846;28;20065;-74
2021/04/12 09:56:41;;;;;;;11.18;4.18;;;9.10;54.20;;;;;;5019306;28;20046;-75
2021/04/12 09:59:16;;;;;;;9.43;3.92;;;9.10;54.60;;;;;;5005129;28;20578;-77
2021/04/12 10:02:27;;;;;;;9.35;4.22;;;9.10;54.00;;;;;;5005442;28;20050;-74
2021/04/12 10:05:10;;;;;;;6.75;3.85;;;9.60;54.30;;;;;;5001195;28;20172;-73
2021/04/12 10:07:51;;;;;;;11.18;4.07;;;11.20;49.80;;;;;;5001630;28;20123;-74
2021/04/12 10:10:29;;;;;;;5.53;3.55;;;12.00;47.40;;;;;;5005135;28;20568;-75
2021/04/12 10:13:32;;;;;;;6.32;3.95;;;10.80;48.00;;;;;;5002771;28;20050;-75
2021/04/12 10:16:19;;;;;;;10.15;4.72;;;10.30;50.30;;;;;;5002711;28;20042;-73
2021/04/12 10:19:08;;;;;;;8.60;4.45;;;11.10;49.60;;;;;;5001446;28;20046;-74
2021/04/12 10:21:56;;;;;;;9.00;4.20;;;12.30;48.00;;;;;;5004303;28;20073;-74
2021/04/12 10:24:43;;;;;;;6.78;4.35;;;11.00;47.60;;;;;;5005794;28;20053;-73
2021/04/12 10:27:22;;;;;;;7.20;3.85;;;11.50;47.30;;;;;;5005308;28;20053;-73
2021/04/12 10:30:10;;;;;;;6.57;3.28;;;10.90;45.20;;;;;;5004193;28;20053;-73
2021/04/12 10:32:47;;;;;;;17.98;3.17;;;10.60;46.20;;;;;;5004877;28;20104;-73
2021/04/12 10:35:29;;;;;;;4.43;2.63;;;9.90;45.90;;;;;;5018464;28;20084;-76
2021/04/12 10:38:16;;;;;;;6.18;3.28;;;10.20;45.50;;;;;;4996897;28;20048;-73
2021/04/12 10:40:57;;;;;;;12.82;3.45;;;10.20;45.80;;;;;;5003497;28;20050;-72
2021/04/12 10:43:53;;;;;;;11.80;3.08;;;12.80;43.60;;;;;;5005182;28;20123;-72
2021/04/12 10:46:32;;;;;;;6.63;2.78;;;10.40;43.70;;;;;;5019507;28;20054;-73
2021/04/12 10:49:12;;;;;;;5.72;3.10;;;9.90;45.40;;;;;;5020147;28;20512;-74
2021/04/12 10:51:45;;;;;;;9.23;3.47;;;10.80;44.70;;;;;;5004625;28;20477;-74
2021/04/12 10:54:36;;;;;;;5.65;3.40;;;10.90;45.10;;;;;;5020008;28;20046;-73
2021/04/12 10:57:36;;;;;;;4.75;2.67;;;12.00;43.40;;;;;;5018573;28;20438;-71
2021/04/12 11:00:35;;;;;;;7.47;2.97;;;11.10;43.80;;;;;;5006158;28;20128;-72
2021/04/12 11:03:38;;;;;;;3.80;2.83;;;10.70;44.90;;;;;;5002933;28;20148;-71
2021/04/12 11:06:31;;;;;;;4.10;2.35;;;10.30;45.30;;;;;;5003342;28;20049;-73
2021/04/12 11:09:33;;;;;;;4.03;2.70;;;10.10;46.00;;;;;;5000559;28;20053;-73
2021/04/12 11:12:36;;;;;;;4.55;2.58;;;10.20;45.70;;;;;;5006173;28;20069;-76
2021/04/12 11:15:14;;;;;;;6.83;2.70;;;10.20;45.90;;;;;;5025751;28;20049;-80
2021/04/12 11:17:50;;;;;;;3.55;2.00;;;10.10;45.80;;;;;;5009952;28;20347;-73
2021/04/12 11:20:31;;;;;;;3.75;2.40;;;9.80;45.40;;;;;;5025511;28;20047;-71
2021/04/12 11:23:08;;;;;;;4.97;2.35;;;10.00;44.80;;;;;;5014247;28;20405;-71
2021/04/12 11:25:38;;;;;;;7.50;3.08;;;10.30;44.50;;;;;;5021401;28;20058;-69
2021/04/12 11:28:35;;;;;;;2.40;1.85;;;11.50;44.20;;;;;;5011444;28;20405;-70
2021/04/12 11:31:26;;;;;;;5.32;2.42;;;11.70;43.00;;;;;;5003413;28;20050;-70
2021/04/12 11:34:01;;;;;;;4.38;2.25;;;11.50;42.80;;;;;;5010660;28;20524;-71
2021/04/12 11:36:42;;;;;;;4.72;2.47;;;11.00;43.70;;;;;;5027296;28;20068;-71
2021/04/12 11:39:14;;;;;;;5.53;2.00;;;10.70;44.20;;;;;;5026152;28;20050;-70
2021/04/12 11:41:53;;;;;;;4.20;2.17;;;10.90;44.70;;;;;;5026455;28;20493;-70
2021/04/12 11:44:29;;;;;;;5.72;2.15;;;10.90;44.00;;;;;;5011157;28;20042;-71
2021/04/12 11:47:45;;;;;;;3.83;2.60;;;10.70;44.70;;;;;;5021315;28;20052;-70
2021/04/12 11:50:33;;;;;;;4.45;2.20;;;10.40;44.90;;;;;;5009860;28;20048;-70
2021/04/12 11:53:23;;;;;;;5.03;2.25;;;10.30;45.50;;;;;;5010448;28;20104;-70
2021/04/12 11:56:13;;;;;;;;;;;10.10;46.30;;;;;;5009981;28;20097;-70
2021/04/12 11:58:51;;;;;;;2.80;1.87;;;10.00;45.70;;;;;;5012166;28;19931;-70
2021/04/12 12:02:00;;;;;;;2.65;1.85;;;10.50;45.40;;;;;;5011853;28;20052;-70
2021/04/12 12:04:44;;;;;;;4.90;2.08;;;10.80;44.60;;;;;;5011324;28;20477;-68
2021/04/12 12:07:31;;;;;;;7.47;2.47;;;10.90;44.60;;;;;;5011748;28;20378;-70
2021/04/12 12:10:03;;;;;;;2.25;1.65;;;11.80;43.90;;;;;;5003827;28;20054;-70
2021/04/12 12:12:42;;;;;;;4.93;2.20;;;12.10;41.30;;;;;;5008735;28;20049;-70
2021/04/12 12:15:18;;;;;;;6.95;1.60;;;12.50;40.00;;;;;;5009594;28;20073;-71
2021/04/12 12:17:59;;;;;;;5.18;1.42;;;12.00;40.70;;;;;;5025989;28;20130;-70
2021/04/12 12:20:32;;;;;;;3.45;1.20;;;12.20;39.80;;;;;;5009943;28;20427;-70
2021/04/12 12:23:37;;;;;;;1.83;1.13;;;13.00;39.30;;;;;;5011165;28;20112;-71
2021/04/12 12:26:09;;;;;;;4.50;2.22;;;12.80;39.60;;;;;;5005847;28;20057;-71
2021/04/12 12:28:42;;;;;;;7.32;2.38;;;13.70;41.10;;;;;;5010585;28;20417;-70
2021/04/12 12:31:31;;;;;;;4.57;1.50;;;12.50;41.30;;;;;;5022946;28;20390;-71
2021/04/12 12:34:15;;;;;;;4.75;1.08;;;13.30;39.90;;;;;;5009890;28;20049;-70
2021/04/12 12:36:55;;;;;;;1.85;0.93;;;14.90;36.60;;;;;;5010290;28;20045;-70
2021/04/12 12:39:29;;;;;;;3.83;1.50;;;13.60;37.60;;;;;;5009213;28;20489;-70
2021/04/12 12:42:01;;;;;;;2.90;1.30;;;16.00;36.70;;;;;;5002444;28;20389;-71
2021/04/12 12:44:30;;;;;;;5.70;1.50;;;18.40;33.70;;;;;;5029565;28;20076;-70
2021/04/12 12:47:04;;;;;;;2.95;1.70;;;17.50;32.70;;;;;;5027959;28;20089;-70
2021/04/12 12:49:32;;;;;;;2.97;1.73;;;18.40;33.60;;;;;;5013879;28;20104;-70
2021/04/12 12:52:03;;;;;;;5.50;1.83;;;18.60;33.50;;;;;;5014556;28;20042;-70
2021/04/12 12:54:45;;;;;;;3.65;1.67;;;19.70;32.50;;;;;;5012951;28;20085;-70
2021/04/12 12:57:15;;;;;;;2.45;1.23;;;19.60;31.50;;;;;;5013217;28;20046;-71
2021/04/12 12:59:47;;;;;;;3.42;1.60;;;19.90;29.70;;;;;;5013544;28;20038;-70
2021/04/12 13:02:34;;;;;;;4.45;1.95;;;18.90;31.60;;;;;;5011327;28;20085;-70
2021/04/12 13:05:10;;;;;;;2.17;1.50;;;19.20;31.40;;;;;;5012418;28;20046;-70
2021/04/12 13:07:39;;;;;;;4.13;1.50;;;18.20;31.10;;;;;;5013587;28;20053;-71
2021/04/12 13:10:32;;;;;;;2.50;1.70;;;19.00;30.60;;;;;;5012387;28;20046;-71
2021/04/12 13:12:59;;;;;;;2.00;1.08;;;19.40;29.60;;;;;;5011068;28;20481;-69
2021/04/12 13:15:35;;;;;;;2.13;1.10;;;17.10;29.80;;;;;;5014213;28;20433;-71
2021/04/12 13:18:10;;;;;;;1.75;1.00;;;19.00;29.30;;;;;;5012582;28;20053;-71
2021/04/12 13:20:42;;;;;;;2.83;1.17;;;18.00;29.30;;;;;;5012863;28;20054;-70
2021/04/12 13:23:14;;;;;;;3.67;1.80;;;17.90;29.10;;;;;;5013914;28;20050;-72
2021/04/12 13:25:44;;;;;;;3.45;1.60;;;17.70;29.80;;;;;;5012935;28;20052;-70
2021/04/12 13:28:17;;;;;;;3.30;1.52;;;16.70;30.00;;;;;;5013456;28;20060;-70
2021/04/12 13:31:21;;;;;;;2.60;1.25;;;16.40;31.10;;;;;;5012648;28;20151;-70
2021/04/12 13:33:52;;;;;;;3.03;1.20;;;15.60;31.60;;;;;;5020947;28;20077;-70
2021/04/12 13:36:33;;;;;;;3.33;1.30;;;15.70;31.80;;;;;;5012060;28;20053;-72
2021/04/12 13:39:05;;;;;;;2.33;1.30;;;14.60;32.40;;;;;;5013713;28;20065;-71
2021/04/12 13:41:45;;;;;;;2.85;1.40;;;13.80;33.40;;;;;;5012162;28;20520;-69
2021/04/12 13:44:15;;;;;;;3.85;1.60;;;13.40;33.20;;;;;;5020713;28;20046;-72
2021/04/12 13:47:01;;;;;;;;;;;13.20;34.60;;;;;;5015420;28;20057;-69
2021/04/12 13:49:38;;;;;;;2.50;1.50;;;12.90;34.60;;;;;;5012218;28;19935;-70
2021/04/12 13:52:27;;;;;;;4.40;1.77;;;12.50;35.50;;;;;;5014786;28;20053;-71
2021/04/12 13:54:58;;;;;;;3.90;1.25;;;12.40;35.70;;;;;;5012261;28;20053;-69
2021/04/12 13:57:25;;;;;;;7.65;1.88;;;12.40;35.20;;;;;;5012979;28;20401;-69
2021/04/12 14:00:03;;;;;;;3.78;1.63;;;12.80;35.20;;;;;;5013121;28;20069;-69
2021/04/12 14:02:33;;;;;;;2.42;1.60;;;12.70;36.20;;;;;;5010735;28;20049;-70
2021/04/12 14:05:05;;;;;;;2.00;1.60;;;12.50;35.90;;;;;;5011593;28;20477;-69
2021/04/12 14:08:05;;;;;;;4.22;1.85;;;12.50;35.80;;;;;;5012547;28;20050;-69
2021/04/12 14:10:37;;;;;;;2.25;1.30;;;12.20;36.10;;;;;;5010749;28;20077;-70
2021/04/12 14:13:21;;;;;;;1.98;1.52;;;12.00;38.20;;;;;;5000290;28;20050;-69
2021/04/12 14:16:50;;;;;;;3.53;1.60;;;13.60;37.60;;;;;;5022826;28;20046;-69
2021/04/12 14:19:39;;;;;;;3.17;2.10;;;14.10;35.20;;;;;;5000637;28;20151;-69
2021/04/12 14:22:22;;;;;;;4.28;2.03;;;13.80;35.00;;;;;;5012166;28;20439;-69
2021/04/12 14:24:59;;;;;;;2.45;1.60;;;13.70;34.60;;;;;;5011850;28;20132;-69
2021/04/12 14:27:32;;;;;;;1.88;1.50;;;12.20;36.10;;;;;;5025534;28;20724;-70
2021/04/12 14:30:19;;;;;;;2.83;1.60;;;11.90;36.90;;;;;;5011163;28;20100;-70